sensor_id;sensor_type;location;lat;lon;timestamp;temperature;humidity
8402;DHT22;4238;48.404;9.498;2024-03-25T05:02:45;2.50;61.20
8402;DHT22;4238;48.404;9.498;2024-03-25T05:05:11;2.50;61.80
8402;DHT22;4238;48.404;9.498;2024-03-25T05:07:37;2.50;58.40
8402;DHT22;4238;48.404;9.498;2024-03-25T05:10:03;2.50;62.20
8402;DHT22;4238;48.404;9.498;2024-03-25T05:12:29;2.50;59.20
8402;DHT22;4238;48.404;9.498;2024-03-25T05:14:55;2.40;64.20
8402;DHT22;4238;48.404;9.498;2024-03-25T05:17:21;2.30;66.10
8402;DHT22;4238;48.404;9.498;2024-03-25T05:19:48;2.10;69.40
8402;DHT22;4238;48.404;9.498;2024-03-25T05:22:14;1.90;74.50
8402;DHT22;4238;48.404;9.498;2024-03-25T05:24:40;1.80;84.00
8402;DHT22;4238;48.404;9.498;2024-03-25T05:27:06;1.80;80.70
8402;DHT22;4238;48.404;9.498;2024-03-25T05:29:31;1.80;85.00
8402;DHT22;4238;48.404;9.498;2024-03-25T05:31:58;1.70;80.30
8402;DHT22;4238;48.404;9.498;2024-03-25T05:34:25;1.70;88.80
8402;DHT22;4238;48.404;9.498;2024-03-25T05:36:53;1.60;90.80
8402;DHT22;4238;48.404;9.498;2024-03-25T05:39:19;1.60;93.90
8402;DHT22;4238;48.404;9.498;2024-03-25T05:41:45;1.70;92.50
8402;DHT22;4238;48.404;9.498;2024-03-25T05:44:11;1.70;86.40
8402;DHT22;4238;48.404;9.498;2024-03-25T05:46:38;1.80;79.40
8402;DHT22;4238;48.404;9.498;2024-03-25T05:49:05;1.60;84.30
8402;DHT22;4238;48.404;9.498;2024-03-25T05:51:32;1.80;84.30
8402;DHT22;4238;48.404;9.498;2024-03-25T05:54:00;1.70;65.90
8402;DHT22;4238;48.404;9.498;2024-03-25T05:56:27;1.20;86.50
8402;DHT22;4238;48.404;9.498;2024-03-25T05:58:53;1.00;95.50
8402;DHT22;4238;48.404;9.498;2024-03-25T06:01:19;0.90;98.60
8402;DHT22;4238;48.404;9.498;2024-03-25T06:03:45;0.90;99.90
8402;DHT22;4238;48.404;9.498;2024-03-25T06:06:11;1.00;99.90
8402;DHT22;4238;48.404;9.498;2024-03-25T06:08:37;1.00;99.90
8402;DHT22;4238;48.404;9.498;2024-03-25T06:11:06;1.20;99.90
8402;DHT22;4238;48.404;9.498;2024-03-25T06:13:34;1.10;99.90
8402;DHT22;4238;48.404;9.498;2024-03-25T06:16:00;1.20;99.90
8402;DHT22;4238;48.404;9.498;2024-03-25T06:18:26;1.30;99.90
8402;DHT22;4238;48.404;9.498;2024-03-25T06:20:54;1.60;99.90
8402;DHT22;4238;48.404;9.498;2024-03-25T06:23:23;1.70;95.90
8402;DHT22;4238;48.404;9.498;2024-03-25T06:25:50;1.80;92.70
8402;DHT22;4238;48.404;9.498;2024-03-25T06:28:19;2.00;97.90
8402;DHT22;4238;48.404;9.498;2024-03-25T06:30:46;2.20;73.70
8402;DHT22;4238;48.404;9.498;2024-03-25T06:33:30;2.30;79.20
8402;DHT22;4238;48.404;9.498;2024-03-25T06:36:15;2.50;68.20
8402;DHT22;4238;48.404;9.498;2024-03-25T06:38:41;2.70;61.90
8402;DHT22;4238;48.404;9.498;2024-03-25T06:41:09;2.70;53.10
8402;DHT22;4238;48.404;9.498;2024-03-25T06:43:37;2.90;53.30
8402;DHT22;4238;48.404;9.498;2024-03-25T06:46:03;2.80;30.00
8402;DHT22;4238;48.404;9.498;2024-03-25T06:48:29;3.10;33.60
8402;DHT22;4238;48.404;9.498;2024-03-25T06:50:56;3.40;17.40
8402;DHT22;4238;48.404;9.498;2024-03-25T06:53:22;3.60;1.30
8402;DHT22;4238;48.404;9.498;2024-03-25T06:55:55;3.90;1.00
8402;DHT22;4238;48.404;9.498;2024-03-25T06:58:24;4.10;1.00
8402;DHT22;4238;48.404;9.498;2024-03-25T07:00:53;4.30;1.00
8402;DHT22;4238;48.404;9.498;2024-03-25T07:03:22;4.40;1.00
8402;DHT22;4238;48.404;9.498;2024-03-25T07:05:49;4.20;1.00
8402;DHT22;4238;48.404;9.498;2024-03-25T07:08:17;4.70;1.00
8402;DHT22;4238;48.404;9.498;2024-03-25T07:10:43;4.70;1.00
8402;DHT22;4238;48.404;9.498;2024-03-25T07:13:09;4.80;1.00
8402;DHT22;4238;48.404;9.498;2024-03-25T07:15:35;4.90;1.00
8402;DHT22;4238;48.404;9.498;2024-03-25T07:18:03;5.00;1.00
8402;DHT22;4238;48.404;9.498;2024-03-25T07:20:29;5.40;1.00
8402;DHT22;4238;48.404;9.498;2024-03-25T07:22:55;5.60;1.00
8402;DHT22;4238;48.404;9.498;2024-03-25T07:25:21;5.60;99.90
8402;DHT22;4238;48.404;9.498;2024-03-25T07:27:47;5.50;99.90
8402;DHT22;4238;48.404;9.498;2024-03-25T07:30:14;5.90;1.00
8402;DHT22;4238;48.404;9.498;2024-03-25T07:32:40;6.20;99.90
8402;DHT22;4238;48.404;9.498;2024-03-25T07:35:07;6.20;1.00
8402;DHT22;4238;48.404;9.498;2024-03-25T07:37:33;6.50;1.00
8402;DHT22;4238;48.404;9.498;2024-03-25T07:40:00;6.60;99.90
8402;DHT22;4238;48.404;9.498;2024-03-25T07:42:26;6.80;99.90
8402;DHT22;4238;48.404;9.498;2024-03-25T07:44:52;6.40;99.90
8402;DHT22;4238;48.404;9.498;2024-03-25T07:47:18;6.70;1.00
8402;DHT22;4238;48.404;9.498;2024-03-25T07:49:44;7.00;22.10
8402;DHT22;4238;48.404;9.498;2024-03-25T07:52:11;7.10;51.60
8402;DHT22;4238;48.404;9.498;2024-03-25T07:54:37;7.20;99.90
8402;DHT22;4238;48.404;9.498;2024-03-25T07:57:03;7.50;1.00
8402;DHT22;4238;48.404;9.498;2024-03-25T07:59:29;7.60;99.90
8402;DHT22;4238;48.404;9.498;2024-03-25T08:01:55;7.70;99.90
8402;DHT22;4238;48.404;9.498;2024-03-25T08:04:21;7.90;99.90
8402;DHT22;4238;48.404;9.498;2024-03-25T08:06:47;8.00;99.90
8402;DHT22;4238;48.404;9.498;2024-03-25T08:09:15;8.30;1.00
8402;DHT22;4238;48.404;9.498;2024-03-25T08:11:40;8.60;1.00
8402;DHT22;4238;48.404;9.498;2024-03-25T08:14:06;8.80;1.00
8402;DHT22;4238;48.404;9.498;2024-03-25T08:16:32;8.80;1.00
8402;DHT22;4238;48.404;9.498;2024-03-25T08:18:58;8.50;1.00
8402;DHT22;4238;48.404;9.498;2024-03-25T08:21:24;8.80;1.00
8402;DHT22;4238;48.404;9.498;2024-03-25T08:23:50;9.30;99.90
8402;DHT22;4238;48.404;9.498;2024-03-25T08:26:18;9.60;99.90
8402;DHT22;4238;48.404;9.498;2024-03-25T08:28:44;9.90;99.90
8402;DHT22;4238;48.404;9.498;2024-03-25T08:31:10;10.20;1.00
8402;DHT22;4238;48.404;9.498;2024-03-25T08:33:36;10.20;1.00
8402;DHT22;4238;48.404;9.498;2024-03-25T08:36:02;10.30;1.00
8402;DHT22;4238;48.404;9.498;2024-03-25T08:38:28;10.30;1.00
8402;DHT22;4238;48.404;9.498;2024-03-25T08:40:54;10.30;99.90
8402;DHT22;4238;48.404;9.498;2024-03-25T08:43:22;10.30;99.90
8402;DHT22;4238;48.404;9.498;2024-03-25T08:45:48;10.30;99.90
8402;DHT22;4238;48.404;9.498;2024-03-25T08:48:14;10.20;99.90
8402;DHT22;4238;48.404;9.498;2024-03-25T08:50:40;10.00;99.90
8402;DHT22;4238;48.404;9.498;2024-03-25T08:53:06;10.00;99.90
8402;DHT22;4238;48.404;9.498;2024-03-25T08:55:32;10.30;99.90
8402;DHT22;4238;48.404;9.498;2024-03-25T08:57:57;10.60;99.90
8402;DHT22;4238;48.404;9.498;2024-03-25T09:00:25;10.90;99.90
8402;DHT22;4238;48.404;9.498;2024-03-25T09:02:51;11.00;99.90
8402;DHT22;4238;48.404;9.498;2024-03-25T09:05:17;11.00;99.90
8402;DHT22;4238;48.404;9.498;2024-03-25T09:07:44;10.20;99.90
8402;DHT22;4238;48.404;9.498;2024-03-25T09:10:11;10.10;99.90
8402;DHT22;4238;48.404;9.498;2024-03-25T09:12:55;10.80;99.90
8402;DHT22;4238;48.404;9.498;2024-03-25T09:15:21;10.10;99.90
8402;DHT22;4238;48.404;9.498;2024-03-25T09:17:48;10.00;99.90
8402;DHT22;4238;48.404;9.498;2024-03-25T09:20:14;10.60;99.90
8402;DHT22;4238;48.404;9.498;2024-03-25T09:22:42;11.10;99.90
8402;DHT22;4238;48.404;9.498;2024-03-25T09:25:08;10.70;57.30
8402;DHT22;4238;48.404;9.498;2024-03-25T09:27:34;10.30;1.00
8402;DHT22;4238;48.404;9.498;2024-03-25T09:30:00;10.60;1.00
8402;DHT22;4238;48.404;9.498;2024-03-25T09:32:26;11.10;1.00
8402;DHT22;4238;48.404;9.498;2024-03-25T09:34:53;11.90;1.00
8402;DHT22;4238;48.404;9.498;2024-03-25T09:37:19;12.20;1.00
8402;DHT22;4238;48.404;9.498;2024-03-25T09:39:45;12.70;1.00
8402;DHT22;4238;48.404;9.498;2024-03-25T09:42:14;13.40;1.00
8402;DHT22;4238;48.404;9.498;2024-03-25T09:44:41;13.40;1.00
8402;DHT22;4238;48.404;9.498;2024-03-25T09:47:07;13.10;1.00
8402;DHT22;4238;48.404;9.498;2024-03-25T09:49:33;13.00;1.00
8402;DHT22;4238;48.404;9.498;2024-03-25T09:52:02;13.00;1.00
8402;DHT22;4238;48.404;9.498;2024-03-25T09:54:28;12.80;1.00
8402;DHT22;4238;48.404;9.498;2024-03-25T09:56:54;13.50;1.00
8402;DHT22;4238;48.404;9.498;2024-03-25T09:59:21;13.40;1.00
8402;DHT22;4238;48.404;9.498;2024-03-25T10:01:46;13.70;1.00
8402;DHT22;4238;48.404;9.498;2024-03-25T10:04:12;13.20;1.00
8402;DHT22;4238;48.404;9.498;2024-03-25T10:06:39;13.50;1.00
8402;DHT22;4238;48.404;9.498;2024-03-25T10:09:07;13.70;1.00
8402;DHT22;4238;48.404;9.498;2024-03-25T10:11:34;12.80;99.90
8402;DHT22;4238;48.404;9.498;2024-03-25T10:14:00;13.10;99.90
8402;DHT22;4238;48.404;9.498;2024-03-25T10:16:27;13.60;1.00
8402;DHT22;4238;48.404;9.498;2024-03-25T10:18:52;13.50;99.90
8402;DHT22;4238;48.404;9.498;2024-03-25T10:21:20;13.00;99.90
8402;DHT22;4238;48.404;9.498;2024-03-25T10:23:46;13.30;99.90
8402;DHT22;4238;48.404;9.498;2024-03-25T10:26:26;13.00;99.90
8402;DHT22;4238;48.404;9.498;2024-03-25T10:28:59;13.00;99.90
8402;DHT22;4238;48.404;9.498;2024-03-25T10:31:25;13.70;99.90
8402;DHT22;4238;48.404;9.498;2024-03-25T10:33:52;12.80;99.90
8402;DHT22;4238;48.404;9.498;2024-03-25T10:36:19;11.80;99.90
8402;DHT22;4238;48.404;9.498;2024-03-25T10:38:46;10.30;99.90
8402;DHT22;4238;48.404;9.498;2024-03-25T10:41:13;10.20;99.90
8402;DHT22;4238;48.404;9.498;2024-03-25T10:43:45;11.40;99.90
8402;DHT22;4238;48.404;9.498;2024-03-25T10:46:14;12.20;99.90
8402;DHT22;4238;48.404;9.498;2024-03-25T10:48:47;13.00;99.90
8402;DHT22;4238;48.404;9.498;2024-03-25T10:51:13;13.50;99.90
8402;DHT22;4238;48.404;9.498;2024-03-25T10:53:41;13.90;99.90
8402;DHT22;4238;48.404;9.498;2024-03-25T10:56:08;13.30;99.90
8402;DHT22;4238;48.404;9.498;2024-03-25T10:58:36;13.50;99.90
8402;DHT22;4238;48.404;9.498;2024-03-25T11:01:03;14.30;99.90
8402;DHT22;4238;48.404;9.498;2024-03-25T11:03:30;15.00;99.90
8402;DHT22;4238;48.404;9.498;2024-03-25T11:05:57;15.40;99.90
8402;DHT22;4238;48.404;9.498;2024-03-25T11:08:30;14.90;99.90
8402;DHT22;4238;48.404;9.498;2024-03-25T11:10:56;13.90;99.90
8402;DHT22;4238;48.404;9.498;2024-03-25T11:13:23;12.80;99.90
8402;DHT22;4238;48.404;9.498;2024-03-25T11:15:49;13.40;99.90
8402;DHT22;4238;48.404;9.498;2024-03-25T11:18:18;12.70;99.90
8402;DHT22;4238;48.404;9.498;2024-03-25T11:20:45;13.20;99.90
8402;DHT22;4238;48.404;9.498;2024-03-25T11:23:12;13.10;99.90
8402;DHT22;4238;48.404;9.498;2024-03-25T11:25:39;13.20;99.90
8402;DHT22;4238;48.404;9.498;2024-03-25T11:28:05;13.50;99.90
8402;DHT22;4238;48.404;9.498;2024-03-25T11:30:32;14.10;99.90
8402;DHT22;4238;48.404;9.498;2024-03-25T11:33:01;14.50;99.90
8402;DHT22;4238;48.404;9.498;2024-03-25T11:35:29;14.80;99.90
8402;DHT22;4238;48.404;9.498;2024-03-25T11:37:54;14.60;99.90
8402;DHT22;4238;48.404;9.498;2024-03-25T11:40:20;13.60;99.90
8402;DHT22;4238;48.404;9.498;2024-03-25T11:42:47;13.60;99.90
8402;DHT22;4238;48.404;9.498;2024-03-25T11:45:14;13.30;99.90
8402;DHT22;4238;48.404;9.498;2024-03-25T11:47:42;13.30;99.90
8402;DHT22;4238;48.404;9.498;2024-03-25T11:50:08;13.50;99.90
8402;DHT22;4238;48.404;9.498;2024-03-25T11:52:37;14.40;99.90
8402;DHT22;4238;48.404;9.498;2024-03-25T11:55:04;14.20;99.90
8402;DHT22;4238;48.404;9.498;2024-03-25T11:57:30;14.20;99.90
8402;DHT22;4238;48.404;9.498;2024-03-25T11:59:57;14.20;99.90
8402;DHT22;4238;48.404;9.498;2024-03-25T12:02:23;14.90;99.90
8402;DHT22;4238;48.404;9.498;2024-03-25T12:04:50;15.30;99.90
8402;DHT22;4238;48.404;9.498;2024-03-25T12:07:16;15.10;99.90
8402;DHT22;4238;48.404;9.498;2024-03-25T12:09:44;15.30;99.90
8402;DHT22;4238;48.404;9.498;2024-03-25T12:12:28;15.10;99.90
8402;DHT22;4238;48.404;9.498;2024-03-25T12:14:55;14.10;99.90
8402;DHT22;4238;48.404;9.498;2024-03-25T12:17:21;14.30;99.90
8402;DHT22;4238;48.404;9.498;2024-03-25T12:19:58;14.60;99.90
8402;DHT22;4238;48.404;9.498;2024-03-25T12:22:25;13.40;99.90
8402;DHT22;4238;48.404;9.498;2024-03-25T12:24:52;12.80;99.90
8402;DHT22;4238;48.404;9.498;2024-03-25T12:27:19;13.40;99.90
8402;DHT22;4238;48.404;9.498;2024-03-25T12:29:44;13.90;99.90
8402;DHT22;4238;48.404;9.498;2024-03-25T12:32:10;13.90;99.90
8402;DHT22;4238;48.404;9.498;2024-03-25T12:34:36;14.50;99.90
8402;DHT22;4238;48.404;9.498;2024-03-25T12:37:03;13.70;99.90
8402;DHT22;4238;48.404;9.498;2024-03-25T12:39:29;14.00;99.90
8402;DHT22;4238;48.404;9.498;2024-03-25T12:41:56;14.60;99.90
8402;DHT22;4238;48.404;9.498;2024-03-25T12:44:22;14.30;99.90
8402;DHT22;4238;48.404;9.498;2024-03-25T12:46:48;14.00;99.90
8402;DHT22;4238;48.404;9.498;2024-03-25T12:49:14;13.90;99.90
8402;DHT22;4238;48.404;9.498;2024-03-25T12:51:40;13.80;99.90
8402;DHT22;4238;48.404;9.498;2024-03-25T12:54:06;14.20;99.90
8402;DHT22;4238;48.404;9.498;2024-03-25T12:56:32;13.90;99.90
8402;DHT22;4238;48.404;9.498;2024-03-25T12:58:59;14.20;99.90
8402;DHT22;4238;48.404;9.498;2024-03-25T13:01:25;13.80;99.90
8402;DHT22;4238;48.404;9.498;2024-03-25T13:03:51;13.70;99.90
8402;DHT22;4238;48.404;9.498;2024-03-25T13:06:17;14.00;99.90
8402;DHT22;4238;48.404;9.498;2024-03-25T13:08:43;14.00;99.90
8402;DHT22;4238;48.404;9.498;2024-03-25T13:11:09;13.30;99.90
8402;DHT22;4238;48.404;9.498;2024-03-25T13:13:34;13.60;99.90
8402;DHT22;4238;48.404;9.498;2024-03-25T13:16:02;13.00;99.90
8402;DHT22;4238;48.404;9.498;2024-03-25T13:18:28;11.70;99.90
8402;DHT22;4238;48.404;9.498;2024-03-25T13:20:54;11.90;99.90
8402;DHT22;4238;48.404;9.498;2024-03-25T13:23:20;12.60;99.90
8402;DHT22;4238;48.404;9.498;2024-03-25T13:25:46;12.80;99.90
8402;DHT22;4238;48.404;9.498;2024-03-25T13:28:12;13.20;99.90
8402;DHT22;4238;48.404;9.498;2024-03-25T13:30:38;13.40;99.90
8402;DHT22;4238;48.404;9.498;2024-03-25T13:33:05;13.10;99.90
8402;DHT22;4238;48.404;9.498;2024-03-25T13:35:31;13.60;99.90
8402;DHT22;4238;48.404;9.498;2024-03-25T13:37:57;14.00;99.90
8402;DHT22;4238;48.404;9.498;2024-03-25T13:40:23;14.20;99.90
8402;DHT22;4238;48.404;9.498;2024-03-25T13:42:49;13.80;99.90
8402;DHT22;4238;48.404;9.498;2024-03-25T13:45:15;13.30;99.90
8402;DHT22;4238;48.404;9.498;2024-03-25T13:47:41;13.50;99.90
8402;DHT22;4238;48.404;9.498;2024-03-25T13:50:08;13.70;99.90
8402;DHT22;4238;48.404;9.498;2024-03-25T13:52:35;13.80;99.90
8402;DHT22;4238;48.404;9.498;2024-03-25T13:55:01;13.40;99.90
8402;DHT22;4238;48.404;9.498;2024-03-25T13:57:27;13.60;99.90
8402;DHT22;4238;48.404;9.498;2024-03-25T13:59:53;13.70;99.90
8402;DHT22;4238;48.404;9.498;2024-03-25T14:02:19;13.40;99.90
8402;DHT22;4238;48.404;9.498;2024-03-25T14:04:44;13.40;99.90
8402;DHT22;4238;48.404;9.498;2024-03-25T14:07:12;13.40;99.90
8402;DHT22;4238;48.404;9.498;2024-03-25T14:09:38;13.50;99.90
8402;DHT22;4238;48.404;9.498;2024-03-25T14:12:04;13.40;99.90
8402;DHT22;4238;48.404;9.498;2024-03-25T14:14:30;13.20;99.90
8402;DHT22;4238;48.404;9.498;2024-03-25T14:16:56;13.30;99.90
8402;DHT22;4238;48.404;9.498;2024-03-25T14:19:21;13.10;99.90
8402;DHT22;4238;48.404;9.498;2024-03-25T14:21:48;13.00;99.90
8402;DHT22;4238;48.404;9.498;2024-03-25T14:24:15;13.00;99.90
8402;DHT22;4238;48.404;9.498;2024-03-25T14:26:41;12.70;99.90
8402;DHT22;4238;48.404;9.498;2024-03-25T14:29:07;12.80;99.90
8402;DHT22;4238;48.404;9.498;2024-03-25T14:31:33;12.80;99.90
8402;DHT22;4238;48.404;9.498;2024-03-25T14:33:59;12.80;99.90
8402;DHT22;4238;48.404;9.498;2024-03-25T14:36:25;12.80;99.90
8402;DHT22;4238;48.404;9.498;2024-03-25T14:38:51;12.70;99.90
8402;DHT22;4238;48.404;9.498;2024-03-25T14:41:20;12.80;99.90
8402;DHT22;4238;48.404;9.498;2024-03-25T14:43:46;12.70;99.90
8402;DHT22;4238;48.404;9.498;2024-03-25T14:46:13;12.70;99.90
8402;DHT22;4238;48.404;9.498;2024-03-25T14:48:39;12.40;99.90
8402;DHT22;4238;48.404;9.498;2024-03-25T14:51:05;12.60;99.90
8402;DHT22;4238;48.404;9.498;2024-03-25T14:53:31;12.40;99.90
8402;DHT22;4238;48.404;9.498;2024-03-25T14:55:56;12.30;99.90
8402;DHT22;4238;48.404;9.498;2024-03-25T14:58:24;12.40;99.90
8402;DHT22;4238;48.404;9.498;2024-03-25T15:00:50;12.30;99.90
8402;DHT22;4238;48.404;9.498;2024-03-25T15:03:15;12.30;99.90
8402;DHT22;4238;48.404;9.498;2024-03-25T15:05:41;12.30;99.90
8402;DHT22;4238;48.404;9.498;2024-03-25T15:08:07;12.30;99.90
8402;DHT22;4238;48.404;9.498;2024-03-25T15:10:33;12.20;99.90
8402;DHT22;4238;48.404;9.498;2024-03-25T15:13:00;11.90;99.90
8402;DHT22;4238;48.404;9.498;2024-03-25T15:15:27;11.80;99.90
8402;DHT22;4238;48.404;9.498;2024-03-25T15:17:53;11.40;99.90
8402;DHT22;4238;48.404;9.498;2024-03-25T15:20:19;11.50;99.90
8402;DHT22;4238;48.404;9.498;2024-03-25T15:22:45;11.60;99.90
8402;DHT22;4238;48.404;9.498;2024-03-25T15:25:11;11.50;99.90
8402;DHT22;4238;48.404;9.498;2024-03-25T15:27:37;11.60;99.90
8402;DHT22;4238;48.404;9.498;2024-03-25T15:30:04;11.50;99.90
8402;DHT22;4238;48.404;9.498;2024-03-25T15:32:31;11.20;99.90
8402;DHT22;4238;48.404;9.498;2024-03-25T15:34:58;11.20;99.90
8402;DHT22;4238;48.404;9.498;2024-03-25T15:37:23;11.10;99.90
8402;DHT22;4238;48.404;9.498;2024-03-25T15:39:49;11.00;99.90
8402;DHT22;4238;48.404;9.498;2024-03-25T15:42:15;11.20;99.90
8402;DHT22;4238;48.404;9.498;2024-03-25T15:44:41;11.30;99.90
8402;DHT22;4238;48.404;9.498;2024-03-25T15:47:08;11.40;99.90
8402;DHT22;4238;48.404;9.498;2024-03-25T15:49:51;11.60;99.90
8402;DHT22;4238;48.404;9.498;2024-03-25T15:52:17;11.50;99.90
8402;DHT22;4238;48.404;9.498;2024-03-25T15:54:44;11.30;99.90
8402;DHT22;4238;48.404;9.498;2024-03-25T15:57:10;11.30;99.90
8402;DHT22;4238;48.404;9.498;2024-03-25T15:59:37;11.20;99.90
8402;DHT22;4238;48.404;9.498;2024-03-25T16:02:05;11.30;99.90
8402;DHT22;4238;48.404;9.498;2024-03-25T16:04:34;11.00;99.90
8402;DHT22;4238;48.404;9.498;2024-03-25T16:07:01;10.90;99.90
8402;DHT22;4238;48.404;9.498;2024-03-25T16:09:30;11.00;99.90
8402;DHT22;4238;48.404;9.498;2024-03-25T16:11:57;11.00;99.90
8402;DHT22;4238;48.404;9.498;2024-03-25T16:14:25;10.40;99.90
8402;DHT22;4238;48.404;9.498;2024-03-25T16:17:00;10.50;99.90
8402;DHT22;4238;48.404;9.498;2024-03-25T16:19:28;10.80;99.90
8402;DHT22;4238;48.404;9.498;2024-03-25T16:21:54;10.80;99.90
8402;DHT22;4238;48.404;9.498;2024-03-25T16:24:27;10.70;99.90
8402;DHT22;4238;48.404;9.498;2024-03-25T16:26:58;10.40;99.90
8402;DHT22;4238;48.404;9.498;2024-03-25T16:29:25;10.40;99.90
8402;DHT22;4238;48.404;9.498;2024-03-25T16:31:52;10.60;99.90
8402;DHT22;4238;48.404;9.498;2024-03-25T16:34:23;10.60;99.90
8402;DHT22;4238;48.404;9.498;2024-03-25T16:36:51;10.30;99.90
8402;DHT22;4238;48.404;9.498;2024-03-25T16:39:18;10.30;99.90
8402;DHT22;4238;48.404;9.498;2024-03-25T16:41:56;9.80;99.90
8402;DHT22;4238;48.404;9.498;2024-03-25T16:44:22;9.70;99.90
8402;DHT22;4238;48.404;9.498;2024-03-25T16:47:04;9.90;99.90
8402;DHT22;4238;48.404;9.498;2024-03-25T16:49:56;10.00;99.90
8402;DHT22;4238;48.404;9.498;2024-03-25T16:56:36;9.90;99.90
8402;DHT22;4238;48.404;9.498;2024-03-25T17:13:15;9.50;99.90
8402;DHT22;4238;48.404;9.498;2024-03-25T17:19:59;9.30;99.90
8402;DHT22;4238;48.404;9.498;2024-03-25T17:22:52;9.30;99.90
8402;DHT22;4238;48.404;9.498;2024-03-25T17:25:28;9.20;99.90
8402;DHT22;4238;48.404;9.498;2024-03-25T18:38:17;6.80;1.00
8402;DHT22;4238;48.404;9.498;2024-03-25T18:40:43;6.80;1.00
8402;DHT22;4238;48.404;9.498;2024-03-25T18:43:09;6.80;1.00
8402;DHT22;4238;48.404;9.498;2024-03-25T18:45:35;6.70;1.00
8402;DHT22;4238;48.404;9.498;2024-03-25T18:48:02;6.60;1.00
8402;DHT22;4238;48.404;9.498;2024-03-25T18:50:28;6.60;1.00
8402;DHT22;4238;48.404;9.498;2024-03-25T18:52:54;6.60;1.00
8402;DHT22;4238;48.404;9.498;2024-03-25T18:55:21;6.50;1.00
8402;DHT22;4238;48.404;9.498;2024-03-25T18:57:47;6.50;1.00
8402;DHT22;4238;48.404;9.498;2024-03-25T19:00:14;6.50;1.00
8402;DHT22;4238;48.404;9.498;2024-03-25T19:02:40;6.40;1.00
8402;DHT22;4238;48.404;9.498;2024-03-25T19:05:06;6.30;1.00
8402;DHT22;4238;48.404;9.498;2024-03-25T19:07:33;6.30;1.00
8402;DHT22;4238;48.404;9.498;2024-03-25T19:09:59;6.30;1.00
8402;DHT22;4238;48.404;9.498;2024-03-25T19:12:27;6.20;1.00
8402;DHT22;4238;48.404;9.498;2024-03-25T19:14:53;6.20;1.00
8402;DHT22;4238;48.404;9.498;2024-03-25T19:17:19;6.20;1.00
8402;DHT22;4238;48.404;9.498;2024-03-25T19:19:45;6.20;1.00
8402;DHT22;4238;48.404;9.498;2024-03-25T19:22:11;6.20;1.00
8402;DHT22;4238;48.404;9.498;2024-03-25T19:24:36;6.20;3.70
8402;DHT22;4238;48.404;9.498;2024-03-25T19:27:03;6.20;4.60
8402;DHT22;4238;48.404;9.498;2024-03-25T19:29:30;6.20;12.40
8402;DHT22;4238;48.404;9.498;2024-03-25T19:31:56;6.20;31.10
8402;DHT22;4238;48.404;9.498;2024-03-25T19:34:22;6.10;30.00
8402;DHT22;4238;48.404;9.498;2024-03-25T19:36:48;6.00;47.20
8402;DHT22;4238;48.404;9.498;2024-03-25T19:39:14;5.90;74.60
8402;DHT22;4238;48.404;9.498;2024-03-25T19:41:40;6.00;98.10
8402;DHT22;4238;48.404;9.498;2024-03-25T19:44:06;6.00;99.90
8402;DHT22;4238;48.404;9.498;2024-03-25T19:46:33;5.90;99.90
8402;DHT22;4238;48.404;9.498;2024-03-25T19:48:59;5.80;99.90
8402;DHT22;4238;48.404;9.498;2024-03-25T19:51:25;5.70;99.90
8402;DHT22;4238;48.404;9.498;2024-03-25T19:53:51;5.80;99.90
8402;DHT22;4238;48.404;9.498;2024-03-25T19:56:17;5.70;99.90
8402;DHT22;4238;48.404;9.498;2024-03-25T19:58:43;5.80;99.90
8402;DHT22;4238;48.404;9.498;2024-03-25T20:01:10;5.70;99.90
8402;DHT22;4238;48.404;9.498;2024-03-25T20:03:37;5.70;99.90
8402;DHT22;4238;48.404;9.498;2024-03-25T20:06:04;5.70;99.90
8402;DHT22;4238;48.404;9.498;2024-03-25T20:08:30;5.60;99.90
8402;DHT22;4238;48.404;9.498;2024-03-25T20:10:56;5.60;99.90
8402;DHT22;4238;48.404;9.498;2024-03-25T20:13:22;5.60;99.90
8402;DHT22;4238;48.404;9.498;2024-03-25T20:15:48;5.50;99.90
8402;DHT22;4238;48.404;9.498;2024-03-25T20:18:14;5.50;99.90
8402;DHT22;4238;48.404;9.498;2024-03-25T20:20:41;5.40;99.90
8402;DHT22;4238;48.404;9.498;2024-03-25T20:23:07;5.50;99.90
8402;DHT22;4238;48.404;9.498;2024-03-25T20:25:34;5.50;99.90
8402;DHT22;4238;48.404;9.498;2024-03-25T20:28:00;5.40;99.90
8402;DHT22;4238;48.404;9.498;2024-03-25T20:30:26;5.40;1.00
8402;DHT22;4238;48.404;9.498;2024-03-25T20:32:53;5.40;1.00
8402;DHT22;4238;48.404;9.498;2024-03-25T20:35:18;5.30;1.00
8402;DHT22;4238;48.404;9.498;2024-03-25T20:37:46;5.30;1.00
8402;DHT22;4238;48.404;9.498;2024-03-25T20:40:12;5.30;1.00
8402;DHT22;4238;48.404;9.498;2024-03-25T20:42:38;5.30;1.00
8402;DHT22;4238;48.404;9.498;2024-03-25T20:45:04;5.30;1.00
8402;DHT22;4238;48.404;9.498;2024-03-25T20:47:30;5.30;1.00
8402;DHT22;4238;48.404;9.498;2024-03-25T20:49:56;5.30;1.00
8402;DHT22;4238;48.404;9.498;2024-03-25T20:52:22;5.30;1.00
8402;DHT22;4238;48.404;9.498;2024-03-25T20:54:49;5.30;1.00
8402;DHT22;4238;48.404;9.498;2024-03-25T20:57:15;5.20;1.00
8402;DHT22;4238;48.404;9.498;2024-03-25T20:59:41;5.10;1.60
8402;DHT22;4238;48.404;9.498;2024-03-25T21:02:07;5.10;68.00
8402;DHT22;4238;48.404;9.498;2024-03-25T21:04:33;5.10;99.50
8402;DHT22;4238;48.404;9.498;2024-03-25T21:06:59;5.10;99.90
8402;DHT22;4238;48.404;9.498;2024-03-25T21:09:25;5.00;99.90
8402;DHT22;4238;48.404;9.498;2024-03-25T21:11:52;5.00;99.90
8402;DHT22;4238;48.404;9.498;2024-03-25T21:14:18;5.00;99.90
8402;DHT22;4238;48.404;9.498;2024-03-25T21:16:44;5.10;99.90
8402;DHT22;4238;48.404;9.498;2024-03-25T21:19:10;5.10;99.90
8402;DHT22;4238;48.404;9.498;2024-03-25T21:21:36;5.00;99.90
8402;DHT22;4238;48.404;9.498;2024-03-25T21:24:02;5.00;99.90
8402;DHT22;4238;48.404;9.498;2024-03-25T21:26:28;4.90;1.00
8402;DHT22;4238;48.404;9.498;2024-03-25T21:28:55;4.90;1.00
8402;DHT22;4238;48.404;9.498;2024-03-25T21:31:21;4.90;1.00
8402;DHT22;4238;48.404;9.498;2024-03-25T21:33:47;4.90;1.00
8402;DHT22;4238;48.404;9.498;2024-03-25T21:36:13;4.90;1.00
8402;DHT22;4238;48.404;9.498;2024-03-25T21:38:38;4.90;1.00
8402;DHT22;4238;48.404;9.498;2024-03-25T21:41:04;4.80;1.00
8402;DHT22;4238;48.404;9.498;2024-03-25T21:43:30;4.70;99.90
8402;DHT22;4238;48.404;9.498;2024-03-25T21:45:58;4.70;99.90
8402;DHT22;4238;48.404;9.498;2024-03-25T21:48:23;4.80;99.90
8402;DHT22;4238;48.404;9.498;2024-03-25T21:50:53;4.70;99.90
8402;DHT22;4238;48.404;9.498;2024-03-25T21:53:19;4.70;99.90
8402;DHT22;4238;48.404;9.498;2024-03-25T21:55:45;4.70;1.00
8402;DHT22;4238;48.404;9.498;2024-03-25T21:58:11;4.70;1.00
